sensor_id;sensor_type;location;lat;lon;timestamp;pressure;altitude;pressure_sealevel;temperature;humidity
20455;BME280;10386;54.314;10.022;2023-06-14T00:00:42;102241.28;;;15.44;100.00
20455;BME280;10386;54.314;10.022;2023-06-14T00:03:10;102237.13;;;15.38;100.00
20455;BME280;10386;54.314;10.022;2023-06-14T00:05:38;102240.84;;;15.50;100.00
20455;BME280;10386;54.314;10.022;2023-06-14T00:08:10;102238.88;;;15.39;100.00
20455;BME280;10386;54.314;10.022;2023-06-14T00:10:37;102237.13;;;15.51;100.00
20455;BME280;10386;54.314;10.022;2023-06-14T00:13:05;102241.81;;;15.49;100.00
20455;BME280;10386;54.314;10.022;2023-06-14T00:15:34;102236.13;;;15.25;100.00
20455;BME280;10386;54.314;10.022;2023-06-14T00:18:01;102231.94;;;15.34;100.00
20455;BME280;10386;54.314;10.022;2023-06-14T00:20:29;102231.09;;;15.33;100.00
20455;BME280;10386;54.314;10.022;2023-06-14T00:23:00;102236.13;;;15.25;100.00
20455;BME280;10386;54.314;10.022;2023-06-14T00:25:28;102233.19;;;15.42;100.00
20455;BME280;10386;54.314;10.022;2023-06-14T00:27:57;102234.97;;;15.29;100.00
20455;BME280;10386;54.314;10.022;2023-06-14T00:30:24;102229.88;;;15.37;100.00
20455;BME280;10386;54.314;10.022;2023-06-14T00:32:51;102223.84;;;15.32;100.00
20455;BME280;10386;54.314;10.022;2023-06-14T00:35:18;102226.28;;;15.23;100.00
20455;BME280;10386;54.314;10.022;2023-06-14T00:37:45;102223.00;;;15.18;100.00
20455;BME280;10386;54.314;10.022;2023-06-14T00:40:12;102219.06;;;15.22;100.00
20455;BME280;10386;54.314;10.022;2023-06-14T00:42:40;102223.09;;;15.17;100.00
20455;BME280;10386;54.314;10.022;2023-06-14T00:45:07;102217.19;;;15.22;100.00
20455;BME280;10386;54.314;10.022;2023-06-14T00:47:35;102226.94;;;15.40;100.00
20455;BME280;10386;54.314;10.022;2023-06-14T00:50:06;102218.81;;;15.13;100.00
20455;BME280;10386;54.314;10.022;2023-06-14T00:52:34;102218.81;;;15.13;100.00
20455;BME280;10386;54.314;10.022;2023-06-14T00:55:01;102211.56;;;14.99;100.00
20455;BME280;10386;54.314;10.022;2023-06-14T00:57:28;102210.94;;;15.08;100.00
20455;BME280;10386;54.314;10.022;2023-06-14T00:59:56;102209.06;;;15.09;100.00
20455;BME280;10386;54.314;10.022;2023-06-14T01:02:23;102209.41;;;15.17;100.00
20455;BME280;10386;54.314;10.022;2023-06-14T01:04:51;102198.88;;;15.11;100.00
20455;BME280;10386;54.314;10.022;2023-06-14T01:13:23;102181.13;;;14.91;100.00
20455;BME280;10386;54.314;10.022;2023-06-14T01:15:52;102182.94;;;15.17;100.00
20455;BME280;10386;54.314;10.022;2023-06-14T01:18:21;102178.97;;;15.09;100.00
20455;BME280;10386;54.314;10.022;2023-06-14T01:20:51;102171.94;;;14.92;100.00
20455;BME280;10386;54.314;10.022;2023-06-14T01:23:23;102170.19;;;14.77;100.00
20455;BME280;10386;54.314;10.022;2023-06-14T01:25:50;102160.09;;;14.92;100.00
20455;BME280;10386;54.314;10.022;2023-06-14T01:28:21;102159.78;;;14.96;100.00
20455;BME280;10386;54.314;10.022;2023-06-14T01:30:51;102134.63;;;15.04;100.00
20455;BME280;10386;54.314;10.022;2023-06-14T01:33:21;102127.53;;;15.14;100.00
20455;BME280;10386;54.314;10.022;2023-06-14T01:35:50;102127.63;;;15.00;100.00
20455;BME280;10386;54.314;10.022;2023-06-14T01:38:19;102129.16;;;15.04;100.00
20455;BME280;10386;54.314;10.022;2023-06-14T01:40:48;102114.13;;;14.84;100.00
20455;BME280;10386;54.314;10.022;2023-06-14T01:43:16;102110.00;;;14.91;100.00
20455;BME280;10386;54.314;10.022;2023-06-14T01:45:44;102103.44;;;14.94;100.00
20455;BME280;10386;54.314;10.022;2023-06-14T01:48:12;102103.34;;;14.95;100.00
20455;BME280;10386;54.314;10.022;2023-06-14T01:50:39;102090.22;;;15.00;100.00
20455;BME280;10386;54.314;10.022;2023-06-14T01:53:10;102089.22;;;14.89;100.00
20455;BME280;10386;54.314;10.022;2023-06-14T01:55:39;102077.03;;;14.80;100.00
20455;BME280;10386;54.314;10.022;2023-06-14T01:58:13;102069.22;;;14.88;100.00
20455;BME280;10386;54.314;10.022;2023-06-14T02:00:39;102057.59;;;14.85;100.00
20455;BME280;10386;54.314;10.022;2023-06-14T02:03:07;102058.22;;;14.76;100.00
20455;BME280;10386;54.314;10.022;2023-06-14T02:05:34;102057.28;;;14.89;100.00
20455;BME280;10386;54.314;10.022;2023-06-14T02:08:01;102046.03;;;15.06;100.00
20455;BME280;10386;54.314;10.022;2023-06-14T02:10:28;102042.41;;;15.06;100.00
20455;BME280;10386;54.314;10.022;2023-06-14T02:12:55;102037.28;;;15.01;100.00
20455;BME280;10386;54.314;10.022;2023-06-14T02:15:22;102036.50;;;14.99;100.00
20455;BME280;10386;54.314;10.022;2023-06-14T02:17:50;102032.47;;;14.92;100.00
20455;BME280;10386;54.314;10.022;2023-06-14T02:20:18;102030.56;;;14.93;100.00
20455;BME280;10386;54.314;10.022;2023-06-14T02:22:45;102025.06;;;14.80;100.00
20455;BME280;10386;54.314;10.022;2023-06-14T02:25:12;102022.28;;;15.07;100.00
20455;BME280;10386;54.314;10.022;2023-06-14T02:27:38;102030.81;;;15.02;100.00
20455;BME280;10386;54.314;10.022;2023-06-14T02:30:06;102019.41;;;14.96;100.00
20455;BME280;10386;54.314;10.022;2023-06-14T02:32:33;102013.59;;;14.75;100.00
20455;BME280;10386;54.314;10.022;2023-06-14T02:35:02;102008.06;;;14.89;100.00
20455;BME280;10386;54.314;10.022;2023-06-14T02:37:30;102015.25;;;14.78;100.00
20455;BME280;10386;54.314;10.022;2023-06-14T02:39:57;102003.00;;;14.71;100.00
20455;BME280;10386;54.314;10.022;2023-06-14T02:42:24;101997.75;;;14.93;100.00
20455;BME280;10386;54.314;10.022;2023-06-14T02:44:50;101995.56;;;14.73;100.00
20455;BME280;10386;54.314;10.022;2023-06-14T02:47:20;101986.72;;;14.94;100.00
20455;BME280;10386;54.314;10.022;2023-06-14T02:49:47;101991.84;;;14.86;100.00
20455;BME280;10386;54.314;10.022;2023-06-14T02:52:14;101977.63;;;14.94;100.00
20455;BME280;10386;54.314;10.022;2023-06-14T02:54:42;101985.81;;;14.81;100.00
20455;BME280;10386;54.314;10.022;2023-06-14T02:57:08;101981.91;;;14.98;100.00
20455;BME280;10386;54.314;10.022;2023-06-14T02:59:37;101975.22;;;15.02;100.00
20455;BME280;10386;54.314;10.022;2023-06-14T03:02:04;101983.63;;;14.86;100.00
20455;BME280;10386;54.314;10.022;2023-06-14T03:04:31;101984.63;;;14.85;100.00
20455;BME280;10386;54.314;10.022;2023-06-14T03:07:04;101976.75;;;14.81;100.00
20455;BME280;10386;54.314;10.022;2023-06-14T03:09:36;101984.06;;;14.68;100.00
20455;BME280;10386;54.314;10.022;2023-06-14T03:12:05;101973.47;;;14.76;100.00
20455;BME280;10386;54.314;10.022;2023-06-14T03:14:33;101970.06;;;14.60;100.00
20455;BME280;10386;54.314;10.022;2023-06-14T03:17:02;101968.06;;;14.49;100.00
20455;BME280;10386;54.314;10.022;2023-06-14T03:19:31;101970.81;;;14.49;100.00
20455;BME280;10386;54.314;10.022;2023-06-14T03:21:58;101968.88;;;14.64;100.00
20455;BME280;10386;54.314;10.022;2023-06-14T03:24:25;101952.38;;;15.15;100.00
20455;BME280;10386;54.314;10.022;2023-06-14T03:26:55;101949.31;;;15.68;100.00
20455;BME280;10386;54.314;10.022;2023-06-14T03:29:23;101953.56;;;16.31;100.00
20455;BME280;10386;54.314;10.022;2023-06-14T03:32:02;101955.47;;;16.87;100.00
20455;BME280;10386;54.314;10.022;2023-06-14T03:34:29;101953.50;;;17.99;100.00
20455;BME280;10386;54.314;10.022;2023-06-14T03:36:56;101979.56;;;18.04;100.00
20455;BME280;10386;54.314;10.022;2023-06-14T03:39:23;102007.97;;;17.83;100.00
20455;BME280;10386;54.314;10.022;2023-06-14T03:41:50;102029.44;;;17.34;100.00
20455;BME280;10386;54.314;10.022;2023-06-14T03:44:18;102049.34;;;16.68;100.00
20455;BME280;10386;54.314;10.022;2023-06-14T03:46:48;102064.63;;;16.24;100.00
20455;BME280;10386;54.314;10.022;2023-06-14T03:49:15;102059.28;;;16.10;100.00
20455;BME280;10386;54.314;10.022;2023-06-14T03:51:43;102068.97;;;16.03;100.00
20455;BME280;10386;54.314;10.022;2023-06-14T03:54:10;102069.88;;;15.91;100.00
20455;BME280;10386;54.314;10.022;2023-06-14T03:56:56;102072.44;;;15.69;100.00
20455;BME280;10386;54.314;10.022;2023-06-14T03:59:24;102072.00;;;15.63;100.00
20455;BME280;10386;54.314;10.022;2023-06-14T04:01:53;102071.13;;;15.62;100.00
20455;BME280;10386;54.314;10.022;2023-06-14T04:04:20;102083.69;;;15.65;100.00
20455;BME280;10386;54.314;10.022;2023-06-14T04:06:47;102070.38;;;16.68;100.00
20455;BME280;10386;54.314;10.022;2023-06-14T04:09:15;102060.78;;;18.72;100.00
20455;BME280;10386;54.314;10.022;2023-06-14T04:11:44;102065.59;;;20.51;100.00
20455;BME280;10386;54.314;10.022;2023-06-14T04:14:11;102134.00;;;20.57;100.00
20455;BME280;10386;54.314;10.022;2023-06-14T04:16:37;102162.44;;;21.92;100.00
20455;BME280;10386;54.314;10.022;2023-06-14T04:19:04;102200.50;;;22.89;100.00
20455;BME280;10386;54.314;10.022;2023-06-14T04:21:31;102231.28;;;21.85;100.00
20455;BME280;10386;54.314;10.022;2023-06-14T04:24:01;102238.31;;;23.08;100.00
20455;BME280;10386;54.314;10.022;2023-06-14T04:26:28;102242.81;;;23.71;100.00
20455;BME280;10386;54.314;10.022;2023-06-14T04:28:56;102248.84;;;23.49;100.00
20455;BME280;10386;54.314;10.022;2023-06-14T04:31:29;102254.00;;;23.44;100.00
20455;BME280;10386;54.314;10.022;2023-06-14T04:33:56;102260.19;;;23.55;100.00
20455;BME280;10386;54.314;10.022;2023-06-14T04:36:23;102226.09;;;22.47;100.00
20455;BME280;10386;54.314;10.022;2023-06-14T04:38:51;102243.69;;;21.72;100.00
20455;BME280;10386;54.314;10.022;2023-06-14T04:41:21;102259.09;;;20.88;100.00
20455;BME280;10386;54.314;10.022;2023-06-14T04:43:49;102262.09;;;19.52;100.00
20455;BME280;10386;54.314;10.022;2023-06-14T04:46:16;102282.03;;;18.81;100.00
20455;BME280;10386;54.314;10.022;2023-06-14T04:48:43;102306.53;;;18.29;100.00
20455;BME280;10386;54.314;10.022;2023-06-14T04:51:12;102317.13;;;17.88;100.00
20455;BME280;10386;54.314;10.022;2023-06-14T04:53:39;102326.69;;;17.83;100.00
20455;BME280;10386;54.314;10.022;2023-06-14T04:56:06;102330.34;;;17.60;100.00
20455;BME280;10386;54.314;10.022;2023-06-14T04:58:33;102336.34;;;17.41;100.00
20455;BME280;10386;54.314;10.022;2023-06-14T05:01:00;102333.00;;;17.38;100.00
20455;BME280;10386;54.314;10.022;2023-06-14T05:03:28;102337.16;;;17.31;100.00
20455;BME280;10386;54.314;10.022;2023-06-14T05:05:57;102336.41;;;17.29;100.00
20455;BME280;10386;54.314;10.022;2023-06-14T05:08:24;102340.69;;;17.33;100.00
20455;BME280;10386;54.314;10.022;2023-06-14T05:10:51;102337.78;;;17.47;100.00
20455;BME280;10386;54.314;10.022;2023-06-14T05:13:18;102338.81;;;17.33;100.00
20455;BME280;10386;54.314;10.022;2023-06-14T05:15:45;102338.56;;;17.36;100.00
20455;BME280;10386;54.314;10.022;2023-06-14T05:18:12;102338.00;;;17.44;100.00
20455;BME280;10386;54.314;10.022;2023-06-14T05:20:40;102331.06;;;17.51;100.00
20455;BME280;10386;54.314;10.022;2023-06-14T05:23:09;102330.63;;;17.91;100.00
20455;BME280;10386;54.314;10.022;2023-06-14T05:25:45;102328.25;;;17.87;100.00
20455;BME280;10386;54.314;10.022;2023-06-14T05:28:12;102330.53;;;17.69;100.00
20455;BME280;10386;54.314;10.022;2023-06-14T05:30:39;102327.31;;;17.52;100.00
20455;BME280;10386;54.314;10.022;2023-06-14T05:33:06;102326.56;;;17.50;100.00
20455;BME280;10386;54.314;10.022;2023-06-14T05:35:33;102321.06;;;17.50;100.00
20455;BME280;10386;54.314;10.022;2023-06-14T05:38:00;102333.41;;;17.44;100.00
20455;BME280;10386;54.314;10.022;2023-06-14T05:40:27;102329.03;;;17.65;100.00
20455;BME280;10386;54.314;10.022;2023-06-14T05:42:54;102327.88;;;17.68;100.00
20455;BME280;10386;54.314;10.022;2023-06-14T05:45:21;102327.75;;;17.93;100.00
20455;BME280;10386;54.314;10.022;2023-06-14T05:47:48;102315.66;;;18.06;100.00
20455;BME280;10386;54.314;10.022;2023-06-14T05:50:15;102321.16;;;18.06;100.00
20455;BME280;10386;54.314;10.022;2023-06-14T05:52:41;102323.13;;;18.27;100.00
20455;BME280;10386;54.314;10.022;2023-06-14T05:55:08;102319.34;;;18.17;100.00
20455;BME280;10386;54.314;10.022;2023-06-14T05:57:39;102318.38;;;18.29;100.00
20455;BME280;10386;54.314;10.022;2023-06-14T06:00:07;102315.53;;;18.31;100.00
20455;BME280;10386;54.314;10.022;2023-06-14T06:02:45;102313.88;;;18.28;100.00
20455;BME280;10386;54.314;10.022;2023-06-14T06:05:14;102312.31;;;18.59;100.00
20455;BME280;10386;54.314;10.022;2023-06-14T06:07:42;102308.56;;;18.60;100.00
20455;BME280;10386;54.314;10.022;2023-06-14T06:10:12;102321.19;;;18.95;100.00
20455;BME280;10386;54.314;10.022;2023-06-14T06:12:41;102314.56;;;19.82;100.00
20455;BME280;10386;54.314;10.022;2023-06-14T06:15:08;102320.63;;;20.49;100.00
20455;BME280;10386;54.314;10.022;2023-06-14T06:17:39;102311.25;;;20.61;100.00
20455;BME280;10386;54.314;10.022;2023-06-14T06:20:23;102313.44;;;20.16;100.00
20455;BME280;10386;54.314;10.022;2023-06-14T06:22:55;102313.66;;;19.93;100.00
20455;BME280;10386;54.314;10.022;2023-06-14T06:25:22;102318.53;;;19.69;100.00
20455;BME280;10386;54.314;10.022;2023-06-14T06:27:55;102328.28;;;20.25;100.00
20455;BME280;10386;54.314;10.022;2023-06-14T06:30:25;102310.22;;;21.80;100.00
20455;BME280;10386;54.314;10.022;2023-06-14T06:32:52;102290.97;;;23.08;100.00
20455;BME280;10386;54.314;10.022;2023-06-14T06:35:20;102286.72;;;24.27;100.00
20455;BME280;10386;54.314;10.022;2023-06-14T06:37:46;102245.97;;;25.36;100.00
20455;BME280;10386;54.314;10.022;2023-06-14T06:40:13;102220.44;;;24.91;100.00
20455;BME280;10386;54.314;10.022;2023-06-14T06:42:41;102202.63;;;25.83;100.00
20455;BME280;10386;54.314;10.022;2023-06-14T06:45:08;102200.44;;;26.33;100.00
20455;BME280;10386;54.314;10.022;2023-06-14T06:47:35;102188.47;;;25.76;100.00
20455;BME280;10386;54.314;10.022;2023-06-14T06:50:02;102198.91;;;26.84;100.00
20455;BME280;10386;54.314;10.022;2023-06-14T06:52:29;102190.00;;;26.51;100.00
20455;BME280;10386;54.314;10.022;2023-06-14T06:54:56;102185.34;;;27.20;100.00
20455;BME280;10386;54.314;10.022;2023-06-14T06:57:23;102172.50;;;27.11;100.00
20455;BME280;10386;54.314;10.022;2023-06-14T06:59:50;102155.63;;;28.31;100.00
20455;BME280;10386;54.314;10.022;2023-06-14T07:02:18;102160.81;;;27.60;100.00
20455;BME280;10386;54.314;10.022;2023-06-14T07:04:44;102137.88;;;28.24;100.00
20455;BME280;10386;54.314;10.022;2023-06-14T07:07:11;102145.91;;;27.90;100.00
20455;BME280;10386;54.314;10.022;2023-06-14T07:09:38;102157.66;;;27.63;100.00
20455;BME280;10386;54.314;10.022;2023-06-14T07:12:05;102129.13;;;27.76;100.00
20455;BME280;10386;54.314;10.022;2023-06-14T07:14:33;102196.69;;;26.80;100.00
20455;BME280;10386;54.314;10.022;2023-06-14T07:17:00;102186.72;;;26.85;100.00
20455;BME280;10386;54.314;10.022;2023-06-14T07:19:26;102198.59;;;25.04;100.00
20455;BME280;10386;54.314;10.022;2023-06-14T07:21:53;102267.34;;;26.49;100.00
20455;BME280;10386;54.314;10.022;2023-06-14T07:24:20;102269.53;;;24.49;100.00
20455;BME280;10386;54.314;10.022;2023-06-14T07:26:48;102318.19;;;22.30;100.00
20455;BME280;10386;54.314;10.022;2023-06-14T07:29:15;102333.91;;;23.31;100.00
20455;BME280;10386;54.314;10.022;2023-06-14T07:31:43;102303.28;;;23.50;100.00
20455;BME280;10386;54.314;10.022;2023-06-14T07:34:09;102323.84;;;22.47;100.00
20455;BME280;10386;54.314;10.022;2023-06-14T07:36:36;102328.81;;;22.44;100.00
20455;BME280;10386;54.314;10.022;2023-06-14T07:39:04;102340.34;;;22.11;100.00
20455;BME280;10386;54.314;10.022;2023-06-14T07:41:33;102322.81;;;22.30;100.00
20455;BME280;10386;54.314;10.022;2023-06-14T07:43:59;102327.75;;;22.36;100.00
20455;BME280;10386;54.314;10.022;2023-06-14T07:46:26;102307.69;;;22.43;100.00
20455;BME280;10386;54.314;10.022;2023-06-14T07:48:53;102319.03;;;22.31;100.00
20455;BME280;10386;54.314;10.022;2023-06-14T07:51:20;102319.97;;;22.12;100.00
20455;BME280;10386;54.314;10.022;2023-06-14T07:53:49;102319.63;;;22.34;100.00
20455;BME280;10386;54.314;10.022;2023-06-14T07:56:16;102325.16;;;22.53;100.00
20455;BME280;10386;54.314;10.022;2023-06-14T07:58:43;102321.47;;;22.52;100.00
20455;BME280;10386;54.314;10.022;2023-06-14T08:01:09;102312.00;;;22.64;100.00
20455;BME280;10386;54.314;10.022;2023-06-14T08:03:37;102317.78;;;22.80;100.00
20455;BME280;10386;54.314;10.022;2023-06-14T08:06:06;102301.22;;;22.61;100.00
20455;BME280;10386;54.314;10.022;2023-06-14T08:08:33;102297.38;;;23.08;100.00
20455;BME280;10386;54.314;10.022;2023-06-14T08:11:00;102278.59;;;23.12;100.00
20455;BME280;10386;54.314;10.022;2023-06-14T08:13:27;102282.66;;;23.35;100.00
20455;BME280;10386;54.314;10.022;2023-06-14T08:15:54;102293.16;;;23.04;100.00
20455;BME280;10386;54.314;10.022;2023-06-14T08:18:22;102296.84;;;23.32;100.00
20455;BME280;10386;54.314;10.022;2023-06-14T08:20:49;102289.97;;;23.71;100.00
20455;BME280;10386;54.314;10.022;2023-06-14T08:23:16;102263.97;;;23.37;100.00
20455;BME280;10386;54.314;10.022;2023-06-14T08:25:45;102257.63;;;23.62;100.00
20455;BME280;10386;54.314;10.022;2023-06-14T08:28:12;102262.00;;;23.64;100.00
20455;BME280;10386;54.314;10.022;2023-06-14T08:30:39;102262.13;;;23.90;100.00
20455;BME280;10386;54.314;10.022;2023-06-14T08:33:05;102262.09;;;22.74;100.00
20455;BME280;10386;54.314;10.022;2023-06-14T08:35:43;102265.72;;;23.73;100.00
20455;BME280;10386;54.314;10.022;2023-06-14T08:38:10;102265.03;;;23.88;100.00
20455;BME280;10386;54.314;10.022;2023-06-14T08:40:42;102236.81;;;23.92;100.00
20455;BME280;10386;54.314;10.022;2023-06-14T08:43:09;102242.81;;;23.71;100.00
20455;BME280;10386;54.314;10.022;2023-06-14T08:45:36;102267.94;;;23.69;100.00
20455;BME280;10386;54.314;10.022;2023-06-14T08:48:05;102253.41;;;24.10;100.00
20455;BME280;10386;54.314;10.022;2023-06-14T08:50:34;102256.69;;;24.05;100.00
20455;BME280;10386;54.314;10.022;2023-06-14T08:53:04;102263.38;;;23.95;100.00
20455;BME280;10386;54.314;10.022;2023-06-14T08:55:32;102262.94;;;23.38;100.00
20455;BME280;10386;54.314;10.022;2023-06-14T08:58:08;102289.25;;;23.69;100.00
20455;BME280;10386;54.314;10.022;2023-06-14T09:00:36;102283.09;;;23.30;100.00
20455;BME280;10386;54.314;10.022;2023-06-14T09:03:05;102304.97;;;23.60;100.00
20455;BME280;10386;54.314;10.022;2023-06-14T09:05:32;102307.63;;;23.96;100.00
20455;BME280;10386;54.314;10.022;2023-06-14T09:07:59;102302.19;;;23.60;100.00
20455;BME280;10386;54.314;10.022;2023-06-14T09:10:31;102296.59;;;23.87;100.00
20455;BME280;10386;54.314;10.022;2023-06-14T09:13:04;102289.03;;;23.97;100.00
20455;BME280;10386;54.314;10.022;2023-06-14T09:15:31;102280.47;;;23.56;100.00
20455;BME280;10386;54.314;10.022;2023-06-14T09:18:01;102307.63;;;23.96;100.00
20455;BME280;10386;54.314;10.022;2023-06-14T09:20:30;102316.81;;;23.97;100.00
20455;BME280;10386;54.314;10.022;2023-06-14T09:22:57;102306.41;;;23.99;100.00
20455;BME280;10386;54.314;10.022;2023-06-14T09:25:24;102315.03;;;24.31;100.00
20455;BME280;10386;54.314;10.022;2023-06-14T09:28:08;102305.25;;;24.01;100.00
20455;BME280;10386;54.314;10.022;2023-06-14T09:30:38;102325.19;;;24.22;100.00
20455;BME280;10386;54.314;10.022;2023-06-14T09:33:05;102329.25;;;24.10;100.00
20455;BME280;10386;54.314;10.022;2023-06-14T09:35:33;102301.41;;;24.45;100.00
20455;BME280;10386;54.314;10.022;2023-06-14T09:37:59;102288.53;;;24.62;100.00
20455;BME280;10386;54.314;10.022;2023-06-14T09:40:26;102269.81;;;24.97;100.00
20455;BME280;10386;54.314;10.022;2023-06-14T09:42:54;102256.56;;;24.83;100.00
20455;BME280;10386;54.314;10.022;2023-06-14T09:45:25;102195.09;;;24.53;100.00
20455;BME280;10386;54.314;10.022;2023-06-14T09:47:57;102236.06;;;24.84;100.00
20455;BME280;10386;54.314;10.022;2023-06-14T09:50:34;102219.69;;;25.15;100.00
20455;BME280;10386;54.314;10.022;2023-06-14T09:53:10;102195.00;;;25.12;100.00
20455;BME280;10386;54.314;10.022;2023-06-14T09:55:37;102186.25;;;24.99;100.00
20455;BME280;10386;54.314;10.022;2023-06-14T09:58:08;102186.34;;;24.73;100.00
20455;BME280;10386;54.314;10.022;2023-06-14T10:00:36;102218.00;;;24.88;100.00
20455;BME280;10386;54.314;10.022;2023-06-14T10:03:12;102215.88;;;24.74;100.00
20455;BME280;10386;54.314;10.022;2023-06-14T10:05:45;102251.22;;;24.64;100.00
20455;BME280;10386;54.314;10.022;2023-06-14T10:08:15;102248.09;;;25.01;100.00
20455;BME280;10386;54.314;10.022;2023-06-14T10:10:43;102227.38;;;25.21;100.00
20455;BME280;10386;54.314;10.022;2023-06-14T10:13:11;102219.91;;;25.29;100.00
20455;BME280;10386;54.314;10.022;2023-06-14T10:18:35;102241.09;;;24.55;100.00
20455;BME280;10386;54.314;10.022;2023-06-14T10:21:13;102251.84;;;24.84;100.00
20455;BME280;10386;54.314;10.022;2023-06-14T10:23:44;102254.84;;;24.90;100.00
20455;BME280;10386;54.314;10.022;2023-06-14T10:26:22;102253.25;;;24.88;100.00
20455;BME280;10386;54.314;10.022;2023-06-14T10:28:58;102258.44;;;25.16;100.00
20455;BME280;10386;54.314;10.022;2023-06-14T10:31:46;102241.63;;;25.18;100.00
20455;BME280;10386;54.314;10.022;2023-06-14T10:34:22;102205.13;;;24.79;100.00
20455;BME280;10386;54.314;10.022;2023-06-14T10:37:07;102217.75;;;24.74;100.00
20455;BME280;10386;54.314;10.022;2023-06-14T10:39:40;102188.28;;;24.89;100.00
20455;BME280;10386;54.314;10.022;2023-06-14T10:42:08;102170.03;;;24.78;100.00
20455;BME280;10386;54.314;10.022;2023-06-14T10:49:57;102165.03;;;24.90;100.00
20455;BME280;10386;54.314;10.022;2023-06-14T10:52:27;102174.56;;;24.79;100.00
20455;BME280;10386;54.314;10.022;2023-06-14T10:55:11;102155.38;;;25.10;100.00
20455;BME280;10386;54.314;10.022;2023-06-14T10:57:52;102146.09;;;24.85;100.00
20455;BME280;10386;54.314;10.022;2023-06-14T11:00:24;102170.75;;;25.45;100.00
20455;BME280;10386;54.314;10.022;2023-06-14T11:05:54;102146.81;;;25.03;100.00
20455;BME280;10386;54.314;10.022;2023-06-14T11:08:27;102183.41;;;25.24;100.00
20455;BME280;10386;54.314;10.022;2023-06-14T11:10:58;102210.59;;;25.54;100.00
20455;BME280;10386;54.314;10.022;2023-06-14T11:13:26;102176.50;;;25.52;100.00
20455;BME280;10386;54.314;10.022;2023-06-14T11:15:54;102166.38;;;25.27;100.00
20455;BME280;10386;54.314;10.022;2023-06-14T11:18:23;102181.88;;;25.45;100.00
20455;BME280;10386;54.314;10.022;2023-06-14T11:20:56;102186.41;;;25.54;100.00
20455;BME280;10386;54.314;10.022;2023-06-14T11:23:23;102162.75;;;25.58;99.79
20455;BME280;10386;54.314;10.022;2023-06-14T11:25:53;102165.03;;;25.55;99.55
20455;BME280;10386;54.314;10.022;2023-06-14T11:28:19;102139.00;;;25.07;97.08
20455;BME280;10386;54.314;10.022;2023-06-14T11:31:10;102173.66;;;25.28;100.00
20455;BME280;10386;54.314;10.022;2023-06-14T11:33:35;102164.84;;;25.64;98.68
20455;BME280;10386;54.314;10.022;2023-06-14T11:36:03;102135.28;;;25.63;95.56
20455;BME280;10386;54.314;10.022;2023-06-14T11:38:35;102132.84;;;25.52;95.18
20455;BME280;10386;54.314;10.022;2023-06-14T11:41:03;102172.13;;;25.81;99.16
20455;BME280;10386;54.314;10.022;2023-06-14T11:43:30;102172.81;;;25.20;99.73
20455;BME280;10386;54.314;10.022;2023-06-14T11:45:59;102164.97;;;25.23;98.94
20455;BME280;10386;54.314;10.022;2023-06-14T11:48:40;102178.88;;;25.23;100.00
20455;BME280;10386;54.314;10.022;2023-06-14T11:51:08;102191.09;;;25.78;100.00
20455;BME280;10386;54.314;10.022;2023-06-14T11:53:34;102183.63;;;26.10;99.55
20455;BME280;10386;54.314;10.022;2023-06-14T11:56:03;102175.09;;;26.12;99.48
20455;BME280;10386;54.314;10.022;2023-06-14T11:58:30;102154.41;;;25.82;98.70
20455;BME280;10386;54.314;10.022;2023-06-14T12:00:57;102176.44;;;26.40;98.97
20455;BME280;10386;54.314;10.022;2023-06-14T12:03:25;102156.81;;;26.17;98.14
20455;BME280;10386;54.314;10.022;2023-06-14T12:06:09;102138.59;;;25.83;96.02
20455;BME280;10386;54.314;10.022;2023-06-14T12:08:37;102140.81;;;25.79;95.75
20455;BME280;10386;54.314;10.022;2023-06-14T12:11:14;102148.50;;;26.01;96.92
20455;BME280;10386;54.314;10.022;2023-06-14T12:13:42;102146.91;;;25.35;97.02
20455;BME280;10386;54.314;10.022;2023-06-14T12:16:10;102171.25;;;25.33;99.05
20455;BME280;10386;54.314;10.022;2023-06-14T12:18:40;102182.09;;;25.84;99.36
20455;BME280;10386;54.314;10.022;2023-06-14T12:21:08;102194.91;;;26.25;100.00
20455;BME280;10386;54.314;10.022;2023-06-14T12:23:45;102163.75;;;26.29;98.09
20455;BME280;10386;54.314;10.022;2023-06-14T12:26:17;102161.03;;;26.68;95.51
20455;BME280;10386;54.314;10.022;2023-06-14T12:28:45;102134.53;;;26.17;94.32
20455;BME280;10386;54.314;10.022;2023-06-14T12:31:13;102136.78;;;26.14;93.92
20455;BME280;10386;54.314;10.022;2023-06-14T12:33:40;102129.50;;;26.05;93.52
20455;BME280;10386;54.314;10.022;2023-06-14T12:36:08;102139.09;;;25.70;92.75
20455;BME280;10386;54.314;10.022;2023-06-14T12:38:37;102144.84;;;25.85;93.70
20455;BME280;10386;54.314;10.022;2023-06-14T12:41:04;102139.66;;;25.82;92.70
20455;BME280;10386;54.314;10.022;2023-06-14T12:43:31;102151.09;;;25.63;93.73
20455;BME280;10386;54.314;10.022;2023-06-14T12:45:58;102121.19;;;25.65;91.06
20455;BME280;10386;54.314;10.022;2023-06-14T12:48:25;102098.75;;;25.50;88.25
20455;BME280;10386;54.314;10.022;2023-06-14T12:50:53;102098.38;;;25.77;86.90
20455;BME280;10386;54.314;10.022;2023-06-14T12:53:20;102125.50;;;26.15;89.31
20455;BME280;10386;54.314;10.022;2023-06-14T12:55:47;102129.47;;;26.13;88.97